Time;durP1;ratioP1;P1;durP2;ratioP2;P2;SDS_P1;SDS_P2;PMS_P1;PMS_P2;Temp;Humidity;BMP_temperature;BMP_pressure;BME280_temperature;BME280_humidity;BME280_pressure;Samples;Min_cycle;Max_cycle;Signal;HPM_P1;HPM_P2
2023/03/06 00:00:54;;;;;;;16.50;10.90;;;;;;;1.49;66.43;96602.56;110183;1245;58938;-67
2023/03/06 00:03:27;;;;;;;16.20;9.40;;;;;;;1.46;66.59;96604.25;110180;1243;58877;-66
2023/03/06 00:05:57;;;;;;;17.70;10.40;;;;;;;1.45;66.45;96608.11;110197;1241;69838;-66
2023/03/06 00:08:28;;;;;;;16.70;10.50;;;;;;;1.44;66.89;96610.92;110155;1241;68715;-66
2023/03/06 00:10:58;;;;;;;13.10;9.00;;;;;;;1.41;67.32;96607.12;110156;1244;68385;-66
2023/03/06 00:13:29;;;;;;;13.60;9.20;;;;;;;1.40;67.00;96603.55;110122;1244;58902;-66
2023/03/06 00:16:00;;;;;;;16.40;9.60;;;;;;;1.40;67.02;96604.24;110151;1244;58905;-66
2023/03/06 00:18:29;;;;;;;;;;;;;;;1.39;66.66;96602.73;110166;1243;70564;-66
2023/03/06 00:20:58;;;;;;;12.90;10.10;;;;;;;1.37;67.20;96602.64;110096;1243;69690;-66
2023/03/06 00:23:28;;;;;;;11.40;8.50;;;;;;;1.36;68.14;96600.80;110153;1245;70219;-66
2023/03/06 00:25:58;;;;;;;13.50;8.90;;;;;;;1.37;70.57;96595.45;110130;1247;58928;-66
2023/03/06 00:28:30;;;;;;;13.50;9.20;;;;;;;1.36;68.98;96591.73;110135;1245;58890;-66
2023/03/06 00:31:01;;;;;;;16.90;10.20;;;;;;;1.34;68.00;96588.38;110145;1244;70274;-66
2023/03/06 00:33:30;;;;;;;16.50;10.10;;;;;;;1.33;67.59;96587.21;110149;1241;69706;-66
2023/03/06 00:36:04;;;;;;;17.20;10.70;;;;;;;1.33;67.90;96582.45;110113;1245;69883;-66
2023/03/06 00:38:36;;;;;;;15.00;8.90;;;;;;;1.31;67.62;96582.55;110161;1248;58922;-66
2023/03/06 00:41:09;;;;;;;16.00;10.80;;;;;;;1.28;66.98;96583.18;110118;1244;58801;-66
2023/03/06 00:43:39;;;;;;;14.90;9.70;;;;;;;1.24;67.67;96581.31;110142;1246;69992;-66
2023/03/06 00:46:08;;;;;;;12.90;9.20;;;;;;;1.20;69.66;96588.89;110138;1241;68705;-66
2023/03/06 00:48:40;;;;;;;17.70;9.80;;;;;;;1.16;71.22;96587.55;110117;1244;68324;-66
2023/03/06 00:51:10;;;;;;;11.70;8.70;;;;;;;1.13;70.84;96583.59;110180;1244;58961;-68
2023/03/06 00:53:41;;;;;;;13.40;9.50;;;;;;;1.09;70.71;96580.50;110156;1244;58928;-66
2023/03/06 00:56:12;;;;;;;16.50;8.80;;;;;;;1.05;70.49;96578.83;110066;1241;71000;-66
2023/03/06 00:58:42;;;;;;;;;;;;;;;1.01;71.03;96576.74;110168;1241;68629;-66
2023/03/06 01:01:13;;;;;;;15.70;9.20;;;;;;;0.99;71.40;96578.75;110107;1241;67768;-66
2023/03/06 01:03:44;;;;;;;14.90;9.90;;;;;;;0.98;71.01;96577.59;110130;1244;58886;-66
2023/03/06 01:06:15;;;;;;;15.10;9.30;;;;;;;0.94;71.30;96576.06;110177;1245;58943;-66
2023/03/06 01:08:45;;;;;;;14.80;9.90;;;;;;;0.89;71.30;96578.72;110135;1241;69816;-66
2023/03/06 01:11:15;;;;;;;17.00;10.80;;;;;;;0.84;71.73;96577.55;110144;1244;69085;-66
2023/03/06 01:13:45;;;;;;;16.00;9.50;;;;;;;0.80;72.34;96576.73;109619;1241;676498;-66
2023/03/06 01:16:17;;;;;;;15.20;9.90;;;;;;;0.78;72.14;96574.10;110149;1244;59383;-66
2023/03/06 01:18:49;;;;;;;13.80;9.90;;;;;;;0.76;72.28;96571.97;110104;1245;58878;-66
2023/03/06 01:21:20;;;;;;;17.80;10.70;;;;;;;0.74;72.45;96572.72;110096;1241;70474;-66
2023/03/06 01:23:50;;;;;;;17.60;10.10;;;;;;;0.71;72.35;96572.01;110189;1241;69111;-66
2023/03/06 01:26:20;;;;;;;17.40;10.20;;;;;;;0.69;72.20;96573.99;110136;1244;68506;-66
2023/03/06 01:28:50;;;;;;;14.90;9.80;;;;;;;0.65;72.60;96573.52;110157;1241;58929;-66
2023/03/06 01:31:20;;;;;;;15.30;10.20;;;;;;;0.63;72.60;96572.05;110108;1241;58912;-66
2023/03/06 01:33:51;;;;;;;14.30;9.30;;;;;;;0.60;72.56;96565.88;110163;1244;69827;-66
2023/03/06 01:36:21;;;;;;;15.30;10.00;;;;;;;0.57;72.54;96566.86;110162;1243;68572;-66
2023/03/06 01:38:51;;;;;;;14.30;9.50;;;;;;;0.55;72.60;96562.31;110144;1244;69184;-66
2023/03/06 01:41:21;;;;;;;;;;;;;;;0.52;72.30;96560.91;110147;1246;58913;-66
2023/03/06 01:43:51;;;;;;;14.50;9.00;;;;;;;0.49;72.43;96560.84;110126;1244;58883;-66
2023/03/06 01:46:32;;;;;;;13.20;9.00;;;;;;;0.48;75.65;96565.03;110138;1244;70212;-66
2023/03/06 01:49:04;;;;;;;16.30;9.70;;;;;;;0.46;77.56;96564.42;110163;1244;69098;-66
2023/03/06 01:51:51;;;;;;;14.60;9.80;;;;;;;0.43;78.75;96563.89;110158;1245;67665;-67
2023/03/06 01:54:45;;;;;;;13.80;8.40;;;;;;;0.39;78.93;96573.15;110191;1241;58906;-68
2023/03/06 01:57:21;;;;;;;14.90;8.30;;;;;;;0.33;79.54;96572.42;110276;1244;58878;-65
2023/03/06 01:59:59;;;;;;;14.40;9.20;;;;;;;0.28;79.62;96576.56;110225;1244;70587;-68
2023/03/06 02:02:29;;;;;;;11.40;7.50;;;;;;;0.28;79.22;96578.98;110188;1241;69208;-66
2023/03/06 02:05:03;;;;;;;10.70;7.00;;;;;;;0.29;77.60;96576.88;110106;1244;68399;-66
2023/03/06 02:07:35;;;;;;;13.30;8.80;;;;;;;0.33;77.35;96578.23;110134;1244;58953;-66
2023/03/06 02:10:09;;;;;;;16.80;8.60;;;;;;;0.42;77.34;96578.85;110177;1241;58891;-66
2023/03/06 02:12:42;;;;;;;15.50;9.20;;;;;;;0.51;77.57;96581.18;110145;1241;70009;-66
2023/03/06 02:15:16;;;;;;;17.10;10.30;;;;;;;0.58;77.38;96577.09;110143;1245;68291;-66
2023/03/06 02:17:50;;;;;;;16.10;10.60;;;;;;;0.61;77.43;96577.80;110153;1243;69287;-66
2023/03/06 02:20:45;;;;;;;13.20;8.80;;;;;;;0.62;77.01;96577.41;110168;1245;58947;-66
2023/03/06 02:23:24;;;;;;;13.80;8.50;;;;;;;0.63;77.72;96574.96;110153;1243;58834;-66
2023/03/06 02:25:56;;;;;;;14.50;9.50;;;;;;;0.61;78.32;96575.93;110171;1243;70772;-66
2023/03/06 02:28:26;;;;;;;17.50;10.60;;;;;;;0.61;77.52;96576.45;110140;1244;69241;-66
2023/03/06 02:30:56;;;;;;;;;;;;;;;0.61;78.50;96578.00;110160;1248;67489;-66
2023/03/06 02:33:28;;;;;;;15.20;9.50;;;;;;;0.61;78.54;96580.20;110147;1244;58890;-66
2023/03/06 02:36:03;;;;;;;13.10;9.30;;;;;;;0.63;78.35;96580.27;110132;1241;58886;-65
2023/03/06 02:38:39;;;;;;;16.10;9.90;;;;;;;0.65;78.40;96583.46;110148;1241;69744;-66
2023/03/06 02:41:10;;;;;;;19.90;10.30;;;;;;;0.66;78.15;96584.77;110143;1244;69654;-66
2023/03/06 02:43:45;;;;;;;17.60;10.90;;;;;;;0.69;78.15;96584.30;110113;1244;68536;-66
2023/03/06 02:46:15;;;;;;;20.60;11.40;;;;;;;0.69;78.05;96585.81;110077;1244;58938;-66
2023/03/06 02:48:45;;;;;;;16.50;9.90;;;;;;;0.69;78.32;96589.07;110144;1244;59287;-66
2023/03/06 02:51:14;;;;;;;15.90;9.90;;;;;;;0.70;78.18;96590.59;110190;1246;69704;-66
2023/03/06 02:53:46;;;;;;;16.80;9.50;;;;;;;0.70;78.16;96588.88;110132;1244;69441;-66
2023/03/06 02:56:18;;;;;;;14.50;9.50;;;;;;;0.72;77.95;96589.42;110135;1241;69262;-67
2023/03/06 02:58:48;;;;;;;17.00;9.80;;;;;;;0.72;78.05;96591.86;110157;1241;58870;-66
2023/03/06 03:01:18;;;;;;;14.80;9.90;;;;;;;0.71;77.88;96591.22;110147;1241;58947;-66
2023/03/06 03:03:48;;;;;;;14.90;9.20;;;;;;;0.73;77.32;96595.06;109818;1241;70099;-66
2023/03/06 03:06:20;;;;;;;17.60;10.40;;;;;;;0.74;77.15;96590.59;110174;1243;69245;-67
2023/03/06 03:08:49;;;;;;;14.60;9.00;;;;;;;0.75;76.79;96591.58;110162;1243;69134;-67
2023/03/06 03:11:20;;;;;;;14.30;10.20;;;;;;;0.78;76.59;96591.57;110103;1244;58883;-66
2023/03/06 03:13:51;;;;;;;16.90;9.50;;;;;;;0.79;76.59;96587.77;110116;1241;58874;-66
2023/03/06 03:16:24;;;;;;;20.00;11.20;;;;;;;0.79;76.60;96587.94;110138;1245;70033;-67
2023/03/06 03:18:56;;;;;;;16.20;9.60;;;;;;;0.78;76.39;96583.35;110131;1244;69244;-66
2023/03/06 03:21:27;;;;;;;17.30;10.50;;;;;;;0.79;75.54;96581.59;110112;1243;69303;-67
2023/03/06 03:23:57;;;;;;;17.20;10.70;;;;;;;0.82;75.17;96580.58;109817;1245;58890;-66
2023/03/06 03:26:29;;;;;;;16.50;10.30;;;;;;;0.81;75.15;96578.06;110209;1243;58934;-66
2023/03/06 03:29:06;;;;;;;18.00;10.30;;;;;;;0.76;76.06;96577.27;110178;1241;71576;-66
2023/03/06 03:31:39;;;;;;;16.60;10.60;;;;;;;0.71;76.62;96575.98;110153;1244;68505;-66
2023/03/06 03:34:09;;;;;;;16.60;10.70;;;;;;;0.68;76.13;96576.77;110191;1244;68552;-67
2023/03/06 03:36:42;;;;;;;19.20;11.60;;;;;;;0.66;76.57;96579.62;110163;1241;58913;-67
2023/03/06 03:39:14;;;;;;;17.10;11.10;;;;;;;0.61;77.62;96575.06;110161;1241;58962;-66
2023/03/06 03:41:45;;;;;;;16.20;10.40;;;;;;;0.56;78.18;96578.70;110175;1244;70452;-66
2023/03/06 03:44:14;;;;;;;;;;;;;;;0.53;78.78;96579.23;110119;1245;69773;-66
2023/03/06 03:46:46;;;;;;;20.30;11.40;;;;;;;0.48;78.81;96581.83;110156;1241;68714;-67
2023/03/06 03:49:20;;;;;;;17.50;10.90;;;;;;;0.46;78.66;96581.38;110173;1241;58871;-67
2023/03/06 03:51:51;;;;;;;14.30;9.00;;;;;;;0.44;78.82;96581.67;110146;1242;58910;-67
2023/03/06 03:54:22;;;;;;;20.70;11.70;;;;;;;0.44;78.47;96581.64;110157;1244;69852;-67
2023/03/06 03:56:53;;;;;;;18.70;11.60;;;;;;;0.45;78.56;96582.81;110136;1241;69323;-67
2023/03/06 03:59:28;;;;;;;17.70;10.10;;;;;;;0.45;78.18;96579.89;110099;1241;69737;-67
2023/03/06 04:02:07;;;;;;;13.50;8.60;;;;;;;0.45;78.18;96581.41;110150;1244;58890;-67
2023/03/06 04:04:42;;;;;;;16.60;10.30;;;;;;;0.43;78.04;96583.75;110176;1243;58893;-67
2023/03/06 04:07:11;;;;;;;19.40;11.10;;;;;;;0.42;77.67;96585.36;110138;1241;69551;-67
2023/03/06 04:09:41;;;;;;;18.10;10.30;;;;;;;0.42;77.34;96586.54;110185;1245;69807;-67
2023/03/06 04:12:10;;;;;;;14.50;9.40;;;;;;;0.43;77.07;96585.15;110135;1244;69864;-67
2023/03/06 04:14:41;;;;;;;15.20;9.00;;;;;;;0.43;77.07;96585.50;110175;1241;58982;-67
2023/03/06 04:17:10;;;;;;;14.80;9.00;;;;;;;0.43;77.04;96588.59;110163;1241;58883;-67
2023/03/06 04:19:42;;;;;;;14.10;9.30;;;;;;;0.43;76.68;96589.08;110173;1241;69971;-67
2023/03/06 04:22:12;;;;;;;14.10;8.10;;;;;;;0.44;76.41;96591.41;110170;1241;69265;-67
2023/03/06 04:24:43;;;;;;;14.70;9.00;;;;;;;0.45;76.82;96588.83;110204;1241;69396;-67
2023/03/06 04:27:13;;;;;;;13.70;8.20;;;;;;;0.44;77.01;96587.81;110189;1241;58884;-68
2023/03/06 04:29:43;;;;;;;;;;;;;;;0.43;76.95;96587.34;110200;1244;58925;-67
2023/03/06 04:32:13;;;;;;;15.00;8.50;;;;;;;0.42;76.77;96588.25;110155;1245;70831;-68
2023/03/06 04:34:43;;;;;;;14.20;9.70;;;;;;;0.41;76.74;96585.23;110148;1244;69677;-67
2023/03/06 04:37:19;;;;;;;17.50;9.70;;;;;;;0.42;76.52;96586.02;110148;1241;68429;-68
2023/03/06 04:39:51;;;;;;;16.50;9.10;;;;;;;0.42;76.57;96585.52;110184;1241;58939;-68
2023/03/06 04:42:21;;;;;;;13.70;8.70;;;;;;;0.43;76.44;96588.91;110212;1243;58887;-68
2023/03/06 04:44:50;;;;;;;;;;;;;;;0.43;75.76;96592.48;110216;1241;69617;-68
2023/03/06 04:47:20;;;;;;;11.30;7.30;;;;;;;0.42;75.44;96595.81;110129;1244;68819;-68
2023/03/06 04:49:50;;;;;;;12.40;7.80;;;;;;;0.41;75.71;96597.41;110161;1241;68513;-67
2023/03/06 04:52:19;;;;;;;15.40;10.50;;;;;;;0.38;75.81;96592.56;110249;1243;58900;-67
2023/03/06 04:54:49;;;;;;;18.30;10.80;;;;;;;0.38;76.00;96592.91;110257;1243;58861;-67
2023/03/06 04:57:19;;;;;;;16.60;9.20;;;;;;;0.37;76.31;96592.10;110238;1244;70644;-67
2023/03/06 04:59:49;;;;;;;14.10;8.10;;;;;;;0.36;76.53;96595.23;110125;1242;69402;-67
2023/03/06 05:02:20;;;;;;;12.90;8.40;;;;;;;0.33;76.75;96598.10;110190;1241;69142;-67
2023/03/06 05:04:49;;;;;;;15.50;9.70;;;;;;;0.32;76.92;96601.08;110108;1242;58985;-68
2023/03/06 05:07:18;;;;;;;13.60;8.30;;;;;;;0.33;76.38;96603.41;110151;1242;58893;-68
2023/03/06 05:09:47;;;;;;;13.70;8.20;;;;;;;0.34;76.27;96604.02;110192;1241;70329;-68
2023/03/06 05:12:16;;;;;;;16.00;8.60;;;;;;;0.36;76.30;96606.04;110193;1241;69228;-68
2023/03/06 05:14:47;;;;;;;14.60;8.20;;;;;;;0.38;76.19;96608.99;110186;1241;68322;-67
2023/03/06 05:17:16;;;;;;;13.90;8.60;;;;;;;0.42;76.25;96609.86;110181;1241;58909;-68
2023/03/06 05:19:46;;;;;;;15.50;9.40;;;;;;;0.46;75.84;96613.61;110197;1246;58816;-68
2023/03/06 05:22:15;;;;;;;14.70;8.10;;;;;;;0.50;75.67;96615.84;110257;1241;70488;-68
2023/03/06 05:24:44;;;;;;;19.20;9.50;;;;;;;0.54;75.99;96617.39;110195;1244;69681;-68
2023/03/06 05:27:14;;;;;;;14.30;7.70;;;;;;;0.57;75.50;96616.92;110163;1244;69515;-68
2023/03/06 05:29:44;;;;;;;12.00;7.90;;;;;;;0.60;75.10;96617.44;110186;1241;58875;-68
2023/03/06 05:32:15;;;;;;;;;;;;;;;0.60;75.64;96618.50;110181;1242;58878;-68
2023/03/06 05:34:44;;;;;;;14.40;7.70;;;;;;;0.63;75.30;96617.65;110214;1244;70479;-68
2023/03/06 05:37:14;;;;;;;14.20;8.90;;;;;;;0.67;75.33;96622.60;110201;1241;69410;-67
2023/03/06 05:39:43;;;;;;;14.30;7.90;;;;;;;0.72;75.27;96620.67;110184;1242;69168;-67
2023/03/06 05:42:12;;;;;;;14.30;8.50;;;;;;;0.79;74.92;96624.14;110156;1244;58934;-67
2023/03/06 05:44:42;;;;;;;14.00;8.30;;;;;;;0.87;74.60;96629.42;110166;1244;58897;-66
2023/03/06 05:47:11;;;;;;;11.90;7.60;;;;;;;0.95;74.43;96628.67;110136;1244;69690;-67
2023/03/06 05:49:40;;;;;;;13.70;8.80;;;;;;;1.03;74.10;96626.09;110127;1244;68741;-67
2023/03/06 05:52:12;;;;;;;15.70;9.60;;;;;;;1.08;73.41;96628.09;110186;1244;69304;-67
2023/03/06 05:54:40;;;;;;;12.80;9.20;;;;;;;1.15;73.11;96627.77;110130;1244;58944;-66
2023/03/06 05:57:09;;;;;;;13.70;7.30;;;;;;;1.24;72.08;96634.20;110156;1244;58846;-67
2023/03/06 05:59:39;;;;;;;13.70;9.00;;;;;;;1.40;71.54;96639.95;110154;1243;70696;-66
2023/03/06 06:02:08;;;;;;;12.90;8.30;;;;;;;1.55;72.04;96637.30;110203;1244;69679;-66
2023/03/06 06:04:37;;;;;;;12.40;8.30;;;;;;;1.72;71.52;96637.17;110159;1244;69897;-67
2023/03/06 06:07:07;;;;;;;11.70;7.90;;;;;;;1.89;70.71;96635.27;110139;1245;58884;-66
2023/03/06 06:09:36;;;;;;;10.70;7.30;;;;;;;2.07;70.24;96637.11;110195;1244;58878;-67
2023/03/06 06:12:06;;;;;;;10.50;6.90;;;;;;;2.24;70.33;96638.95;110170;1243;69572;-67
2023/03/06 06:14:36;;;;;;;12.10;7.20;;;;;;;2.40;70.07;96640.92;110122;1244;69820;-67
2023/03/06 06:17:06;;;;;;;10.70;7.10;;;;;;;2.48;68.49;96644.23;110141;1241;69627;-67
2023/03/06 06:19:35;;;;;;;9.40;6.80;;;;;;;2.56;67.23;96648.85;110168;1241;58958;-67
2023/03/06 06:22:05;;;;;;;10.20;6.80;;;;;;;2.62;66.65;96649.05;110147;1242;58924;-67
2023/03/06 06:24:33;;;;;;;9.30;6.50;;;;;;;2.64;65.09;96646.00;110145;1241;69628;-67
2023/03/06 06:27:03;;;;;;;10.40;7.00;;;;;;;2.66;65.65;96646.93;110166;1243;69846;-67
2023/03/06 06:29:33;;;;;;;10.00;6.60;;;;;;;2.70;66.52;96647.60;110101;1245;69346;-67
2023/03/06 06:32:02;;;;;;;12.20;7.10;;;;;;;2.73;65.74;96649.50;110173;1243;59281;-67
2023/03/06 06:34:31;;;;;;;15.10;7.60;;;;;;;2.76;65.09;96647.77;110163;1243;58878;-66
2023/03/06 06:37:00;;;;;;;11.00;7.00;;;;;;;2.80;64.98;96650.48;110153;1245;70535;-67
2023/03/06 06:39:29;;;;;;;13.40;7.60;;;;;;;2.84;64.20;96652.36;110148;1243;69260;-67
2023/03/06 06:41:58;;;;;;;12.40;7.90;;;;;;;3.03;65.10;96652.66;110098;1245;69342;-67
2023/03/06 06:44:48;;;;;;;11.40;7.20;;;;;;;3.33;63.77;96657.23;110168;1244;58867;-67
2023/03/06 06:47:17;;;;;;;11.90;8.40;;;;;;;3.60;62.81;96656.05;110152;1241;58931;-67
2023/03/06 06:49:53;;;;;;;10.90;7.50;;;;;;;3.69;61.91;96656.54;110151;1244;71174;-67
2023/03/06 06:52:23;;;;;;;11.30;7.80;;;;;;;4.05;62.85;96659.48;110143;1241;69278;-67
2023/03/06 06:54:52;;;;;;;12.00;8.70;;;;;;;4.46;61.13;96662.73;110162;1244;69864;-67
2023/03/06 06:57:21;;;;;;;13.50;8.10;;;;;;;4.76;62.42;96667.64;110119;1248;58906;-67
2023/03/06 06:59:51;;;;;;;11.10;7.00;;;;;;;4.81;59.74;96666.26;110171;1242;58940;-67
2023/03/06 07:02:22;;;;;;;12.00;7.90;;;;;;;4.98;59.42;96664.89;110178;1241;70592;-67
2023/03/06 07:04:51;;;;;;;12.70;7.80;;;;;;;4.98;56.03;96668.54;110193;1251;69041;-69
2023/03/06 07:07:36;;;;;;;12.90;8.20;;;;;;;4.66;56.76;96665.27;110177;1244;69251;-69
2023/03/06 07:10:10;;;;;;;11.70;8.30;;;;;;;4.46;56.89;96668.94;110151;1243;58885;-67
2023/03/06 07:12:40;;;;;;;14.20;9.80;;;;;;;4.33;57.38;96669.40;110110;1244;58913;-67
2023/03/06 07:15:14;;;;;;;12.30;8.80;;;;;;;4.24;57.83;96674.23;110144;1247;69857;-67
2023/03/06 07:17:43;;;;;;;10.30;7.80;;;;;;;4.38;57.81;96676.00;110173;1241;69228;-67
2023/03/06 07:20:13;;;;;;;12.90;8.20;;;;;;;4.78;56.98;96681.17;110117;1244;69316;-67
2023/03/06 07:22:42;;;;;;;11.30;8.50;;;;;;;4.89;56.10;96685.12;110176;1242;58935;-66
2023/03/06 07:25:19;;;;;;;13.90;8.90;;;;;;;5.01;55.96;96689.71;110106;1245;58968;-66
2023/03/06 07:27:52;;;;;;;11.50;7.50;;;;;;;5.07;55.91;96691.10;110131;1241;71173;-66
2023/03/06 07:30:23;;;;;;;10.70;6.70;;;;;;;5.11;53.82;96691.17;110106;1244;70206;-67
2023/03/06 07:32:56;;;;;;;10.70;6.40;;;;;;;4.90;53.66;96691.10;110113;1245;69913;-67
2023/03/06 07:35:26;;;;;;;8.90;5.90;;;;;;;4.60;53.91;96688.61;110117;1243;60142;-67
2023/03/06 07:37:55;;;;;;;9.40;5.70;;;;;;;4.34;54.40;96695.34;110123;1241;59747;-67
2023/03/06 07:40:25;;;;;;;8.00;6.10;;;;;;;4.03;55.43;96703.91;110140;1242;72287;-68
2023/03/06 07:42:56;;;;;;;9.90;6.10;;;;;;;3.78;55.99;96701.90;110152;1243;69626;-68
2023/03/06 07:45:45;;;;;;;10.00;5.50;;;;;;;3.67;55.85;96704.77;110163;1244;69287;-68
2023/03/06 07:48:14;;;;;;;7.30;5.10;;;;;;;3.61;55.98;96709.92;110170;1243;59753;-66
2023/03/06 07:50:44;;;;;;;6.90;5.30;;;;;;;3.84;56.07;96708.77;110266;1243;59692;-67
2023/03/06 07:53:12;;;;;;;7.40;4.80;;;;;;;4.27;55.05;96707.34;110202;1241;70673;-68
2023/03/06 07:55:41;;;;;;;8.10;5.40;;;;;;;4.88;54.30;96710.55;110154;1241;68965;-68
2023/03/06 07:58:11;;;;;;;7.30;4.90;;;;;;;5.60;51.65;96713.18;110117;1243;69477;-67
2023/03/06 08:00:40;;;;;;;6.50;4.70;;;;;;;6.46;50.70;96706.69;110129;1242;59689;-67
2023/03/06 08:03:11;;;;;;;7.40;5.30;;;;;;;7.16;48.96;96710.34;110138;1241;59741;-66
2023/03/06 08:05:41;;;;;;;8.80;5.90;;;;;;;7.60;47.75;96711.55;110159;1243;71343;-66
2023/03/06 08:08:10;;;;;;;8.00;5.30;;;;;;;7.85;46.05;96709.77;110161;1244;69237;-66
2023/03/06 08:10:40;;;;;;;7.50;5.20;;;;;;;8.04;45.74;96708.48;110093;1243;69885;-67
2023/03/06 08:13:08;;;;;;;7.00;5.50;;;;;;;8.26;44.64;96707.73;110112;1243;59760;-67
2023/03/06 08:15:37;;;;;;;8.70;5.50;;;;;;;8.61;44.52;96707.95;110177;1241;59742;-66
2023/03/06 08:18:06;;;;;;;9.30;5.60;;;;;;;8.25;43.84;96710.80;110136;1241;70604;-67
2023/03/06 08:20:36;;;;;;;6.70;4.70;;;;;;;7.96;44.74;96715.20;110131;1244;68827;-67
2023/03/06 08:23:05;;;;;;;7.30;5.00;;;;;;;8.27;44.52;96714.82;110291;1243;68920;-67
2023/03/06 08:25:34;;;;;;;6.80;4.90;;;;;;;8.65;43.26;96711.14;110129;1241;60094;-66
2023/03/06 08:28:03;;;;;;;7.60;4.90;;;;;;;9.48;43.84;96710.06;110148;1241;59724;-66
2023/03/06 08:30:34;;;;;;;7.20;5.00;;;;;;;10.24;42.70;96707.49;110141;1244;70677;-66
2023/03/06 08:33:03;;;;;;;9.00;6.80;;;;;;;10.41;39.50;96707.02;110218;1243;69906;-66
2023/03/06 08:35:31;;;;;;;9.10;6.60;;;;;;;10.38;39.84;96707.48;110159;1244;69689;-67
2023/03/06 08:38:01;;;;;;;7.00;5.60;;;;;;;10.44;39.55;96708.89;110218;1243;59660;-68
2023/03/06 08:40:30;;;;;;;8.50;5.60;;;;;;;10.07;39.47;96714.55;110189;1242;59691;-69
2023/03/06 08:42:59;;;;;;;7.70;6.30;;;;;;;9.86;40.14;96717.25;110260;1241;71955;-68
2023/03/06 08:45:28;;;;;;;11.40;7.70;;;;;;;10.21;39.73;96711.63;110268;1244;69831;-67
2023/03/06 08:47:57;;;;;;;8.80;7.40;;;;;;;10.54;39.75;96706.27;110343;1241;69239;-67
2023/03/06 08:50:26;;;;;;;10.90;7.00;;;;;;;10.62;39.04;96706.69;110123;1244;59737;-69
2023/03/06 08:52:55;;;;;;;9.30;7.10;;;;;;;10.20;39.30;96711.33;110150;1241;59725;-68
2023/03/06 08:55:24;;;;;;;8.70;5.60;;;;;;;9.94;39.85;96715.88;110106;1241;71860;-67
2023/03/06 08:57:53;;;;;;;9.80;7.10;;;;;;;9.76;39.51;96714.73;110148;1244;69829;-67
2023/03/06 09:00:23;;;;;;;7.90;6.10;;;;;;;9.59;40.29;96711.23;110150;1243;69311;-69
2023/03/06 09:02:52;;;;;;;9.90;6.30;;;;;;;8.79;40.96;96709.70;110140;1245;59754;-67
2023/03/06 09:05:21;;;;;;;9.10;6.60;;;;;;;9.16;41.46;96710.86;110150;1244;59672;-67
2023/03/06 09:07:50;;;;;;;8.10;5.60;;;;;;;10.08;40.19;96709.06;110149;1244;71185;-69
2023/03/06 09:10:22;;;;;;;7.50;5.70;;;;;;;10.52;38.83;96706.80;110125;1243;69704;-68
2023/03/06 09:12:52;;;;;;;7.90;5.40;;;;;;;11.14;38.32;96706.75;110142;1241;69645;-68
2023/03/06 09:15:23;;;;;;;8.60;5.60;;;;;;;12.12;38.40;96712.47;110133;1242;59782;-69
2023/03/06 09:17:53;;;;;;;7.80;6.10;;;;;;;12.89;36.81;96714.80;110182;1244;59614;-69
2023/03/06 09:20:22;;;;;;;9.60;6.20;;;;;;;12.92;34.81;96712.07;110174;1241;72435;-67
2023/03/06 09:22:51;;;;;;;8.20;5.60;;;;;;;12.15;35.14;96714.48;110177;1243;69217;-67
2023/03/06 09:25:22;;;;;;;8.50;5.80;;;;;;;11.85;35.46;96721.75;110139;1241;69067;-69
2023/03/06 09:27:50;;;;;;;7.40;5.80;;;;;;;11.81;36.23;96721.16;110124;1241;59692;-68
2023/03/06 09:30:39;;;;;;;7.90;5.90;;;;;;;11.45;36.69;96721.15;110136;1243;59628;-69
2023/03/06 09:33:08;;;;;;;8.70;6.20;;;;;;;10.62;36.28;96719.89;110104;1241;71359;-69
2023/03/06 09:35:46;;;;;;;9.70;6.00;;;;;;;10.18;37.70;96719.70;110145;1243;68466;-67
2023/03/06 09:38:17;;;;;;;8.30;6.20;;;;;;;9.52;38.27;96727.98;109923;1241;69272;-67
2023/03/06 09:41:01;;;;;;;7.70;5.90;;;;;;;9.02;38.64;96727.00;110150;1241;59698;-70
2023/03/06 09:43:35;;;;;;;7.70;5.10;;;;;;;9.03;39.68;96727.98;110171;1241;59725;-69
2023/03/06 09:46:27;;;;;;;7.20;5.50;;;;;;;8.76;39.41;96718.39;110091;1241;71085;-69
2023/03/06 09:49:28;;;;;;;9.40;6.10;;;;;;;8.71;39.97;96717.77;110122;1241;68277;-69
2023/03/06 09:52:34;;;;;;;9.50;6.50;;;;;;;8.47;40.80;96721.98;109998;1244;68822;-66
2023/03/06 09:55:04;;;;;;;8.80;5.90;;;;;;;8.11;41.25;96723.27;110079;1241;59804;-67
2023/03/06 09:57:51;;;;;;;7.10;5.50;;;;;;;7.96;41.48;96725.41;110136;1243;59806;-69
2023/03/06 10:00:46;;;;;;;7.50;5.30;;;;;;;7.98;41.60;96728.58;110124;1241;71419;-68
2023/03/06 10:03:28;;;;;;;9.50;6.40;;;;;;;7.89;41.15;96733.06;110145;1241;69361;-67
2023/03/06 10:06:19;;;;;;;7.70;5.60;;;;;;;7.61;41.75;96732.32;110110;1241;69845;-67
2023/03/06 10:08:54;;;;;;;8.30;5.60;;;;;;;7.62;41.65;96732.05;110127;1245;59722;-67
2023/03/06 10:11:56;;;;;;;6.30;5.40;;;;;;;7.71;41.15;96730.17;110114;1245;59690;-67
2023/03/06 10:14:43;;;;;;;7.90;5.80;;;;;;;7.39;40.51;96729.84;110157;1241;71350;-67
2023/03/06 10:17:19;;;;;;;8.60;5.30;;;;;;;7.39;40.59;96726.40;110130;1245;69860;-67
2023/03/06 10:19:48;;;;;;;7.90;5.90;;;;;;;7.86;40.10;96727.56;110137;1243;69930;-67
2023/03/06 10:22:31;;;;;;;8.60;5.80;;;;;;;8.13;39.10;96720.20;110125;1241;59764;-69
2023/03/06 10:25:12;;;;;;;6.80;4.90;;;;;;;8.28;39.07;96716.67;110139;1241;59689;-67
2023/03/06 10:27:46;;;;;;;5.30;3.60;;;;;;;9.41;38.68;96714.05;110142;1241;71890;-66
2023/03/06 10:30:32;;;;;;;6.50;4.50;;;;;;;10.40;35.20;96705.86;110160;1244;69798;-68
2023/03/06 10:33:14;;;;;;;7.10;5.00;;;;;;;10.90;34.68;96702.34;110117;1243;69722;-69
2023/03/06 10:35:48;;;;;;;6.20;4.90;;;;;;;11.12;34.32;96705.52;110149;1244;59740;-69
2023/03/06 10:38:36;;;;;;;7.20;5.00;;;;;;;11.17;34.61;96701.27;110166;1241;59694;-68
2023/03/06 10:41:15;;;;;;;6.80;4.70;;;;;;;11.00;34.25;96702.70;110171;1244;71368;-68
2023/03/06 10:44:08;;;;;;;7.40;5.40;;;;;;;10.68;33.51;96698.25;110184;1241;69821;-68
2023/03/06 10:46:50;;;;;;;8.80;5.60;;;;;;;10.14;34.93;96691.80;110230;1244;68540;-68
2023/03/06 10:49:28;;;;;;;7.10;4.90;;;;;;;9.97;35.83;96696.89;110168;1241;59683;-67
2023/03/06 10:52:00;;;;;;;7.00;4.80;;;;;;;9.81;35.92;96692.95;110203;1241;59713;-69
2023/03/06 10:54:35;;;;;;;7.50;5.20;;;;;;;9.81;35.59;96682.48;110138;1244;72067;-67
2023/03/06 10:57:25;;;;;;;8.00;4.90;;;;;;;9.65;35.66;96682.95;110169;1243;69245;-67
2023/03/06 11:00:06;;;;;;;6.20;4.40;;;;;;;10.30;35.99;96670.78;110142;1241;69895;-67
2023/03/06 11:02:39;;;;;;;5.70;4.50;;;;;;;11.27;33.93;96666.68;110156;1243;59704;-68
2023/03/06 11:05:18;;;;;;;6.10;4.80;;;;;;;12.44;32.44;96660.06;110187;1243;59688;-67
2023/03/06 11:07:58;;;;;;;5.50;4.30;;;;;;;13.65;31.04;96666.83;110125;1245;71959;-67
2023/03/06 11:10:30;;;;;;;6.20;4.00;;;;;;;14.75;30.70;96657.25;110146;1244;69029;-67
2023/03/06 11:13:19;;;;;;;5.10;3.60;;;;;;;15.15;28.73;96652.77;109939;1244;69096;-69
2023/03/06 11:16:04;;;;;;;6.40;4.80;;;;;;;15.31;26.97;96658.11;110130;1241;59664;-66
2023/03/06 11:18:39;;;;;;;6.50;4.80;;;;;;;13.87;27.82;96652.41;110125;1242;59737;-67
2023/03/06 11:21:30;;;;;;;7.60;5.10;;;;;;;12.64;28.86;96648.80;110135;1244;72001;-67
2023/03/06 11:24:17;;;;;;;6.40;4.40;;;;;;;11.57;30.74;96651.81;110106;1241;69265;-67
2023/03/06 11:26:58;;;;;;;8.10;5.40;;;;;;;12.26;30.98;96650.17;110106;1241;69406;-67
2023/03/06 11:29:44;;;;;;;8.70;6.60;;;;;;;13.37;30.59;96651.40;110150;1241;59653;-66
2023/03/06 11:32:13;;;;;;;8.20;7.00;;;;;;;13.37;29.25;96652.23;110168;1243;59710;-68
2023/03/06 11:35:10;;;;;;;9.10;6.90;;;;;;;13.30;29.50;96651.48;110164;1241;71281;-67
2023/03/06 11:37:58;;;;;;;6.80;5.20;;;;;;;13.33;28.83;96645.46;110169;1244;68329;-68
2023/03/06 11:40:44;;;;;;;7.30;5.80;;;;;;;11.50;30.12;96640.00;110124;1241;68392;-65
2023/03/06 11:43:28;;;;;;;7.20;5.40;;;;;;;10.03;32.34;96634.73;110122;1243;59754;-67
2023/03/06 11:46:16;;;;;;;6.60;5.30;;;;;;;9.79;33.23;96636.90;110159;1241;59750;-68
2023/03/06 11:48:52;;;;;;;6.60;4.60;;;;;;;9.09;34.56;96636.08;110147;1244;71862;-67
2023/03/06 11:51:25;;;;;;;8.20;4.70;;;;;;;9.05;35.44;96639.89;110148;1241;70047;-67
2023/03/06 11:53:57;;;;;;;7.40;5.10;;;;;;;9.23;34.40;96641.61;110156;1241;69571;-67